createdAt,value
2022-12-23T00:01:35.605Z,99034.75
2022-12-23T00:04:04.240Z,99043.59
2022-12-23T00:06:32.383Z,99046.25
2022-12-23T00:09:01.620Z,99043.59
2022-12-23T00:11:30.742Z,99047.69
2022-12-23T00:14:21.142Z,99041.41
2022-12-23T00:16:51.893Z,99038.53
2022-12-23T00:19:20.651Z,99032.06
2022-12-23T00:21:49.500Z,99031.84
2022-12-23T00:24:17.643Z,99036.97
2022-12-23T00:26:46.148Z,99025.16
2022-12-23T00:29:14.618Z,99025.78
2022-12-23T00:31:43.472Z,99035.38
2022-12-23T00:34:12.974Z,99018.47
2022-12-23T00:36:41.537Z,99022.72
2022-12-23T00:39:31.018Z,99015.81
2022-12-23T00:42:16.799Z,99023.38
2022-12-23T00:44:45.326Z,99015.22
2022-12-23T00:47:35.166Z,99012.38
2022-12-23T00:50:02.317Z,99006.69
2022-12-23T00:52:30.822Z,99009.13
2022-12-23T00:54:59.340Z,99007.94
2022-12-23T00:57:28.075Z,99011.59
2022-12-23T00:59:56.717Z,99002.63
2022-12-23T01:02:42.626Z,99010.59
2022-12-23T01:05:29.975Z,99013.44
2022-12-23T01:07:58.425Z,99004.47
2022-12-23T01:10:26.870Z,99003.44
2022-12-23T01:12:55.025Z,99002.44
2022-12-23T01:15:23.990Z,99007.75
2022-12-23T01:17:52.519Z,99005.09
2022-12-23T01:20:20.992Z,99010.41
2022-12-23T01:22:49.528Z,99007.94
2022-12-23T01:25:18.683Z,99008.13
2022-12-23T01:27:47.228Z,99009.56
2022-12-23T01:30:16.480Z,98989.97
2022-12-23T01:32:45.102Z,98991.44
2022-12-23T01:35:13.607Z,98987.75
2022-12-23T01:37:42.233Z,98994.50
2022-12-23T01:40:11.187Z,98988.38
2022-12-23T01:42:44.573Z,98984.09
2022-12-23T01:45:29.618Z,98978.97
2022-12-23T01:48:10.071Z,98980.25
2022-12-23T01:50:42.628Z,98980.25
2022-12-23T01:53:18.346Z,98969.84
2022-12-23T01:56:00.453Z,98971.66
2022-12-23T01:59:36.015Z,98971.25
2022-12-23T02:02:22.159Z,98980.03
2022-12-23T02:04:51.418Z,98972.06
2022-12-23T02:07:37.656Z,98979.22
2022-12-23T02:10:07.613Z,98967.97
2022-12-23T02:13:03.431Z,98966.31
2022-12-23T02:15:49.440Z,98964.69
2022-12-23T02:18:53.686Z,98964.03
2022-12-23T02:22:01.595Z,98967.75
2022-12-23T02:25:18.240Z,98960.94
2022-12-23T02:28:21.221Z,98963.59
2022-12-23T02:31:02.882Z,98969.13
2022-12-23T02:33:43.189Z,98968.31
2022-12-23T02:36:38.054Z,98966.88
2022-12-23T02:39:26.021Z,98966.88
2022-12-23T02:42:14.009Z,98955.81
2022-12-23T02:45:10.966Z,98961.94
2022-12-23T02:48:01.735Z,98964.97
2022-12-23T02:50:34.566Z,98963.34
2022-12-23T02:53:11.381Z,98961.69
2022-12-23T02:55:43.251Z,98956.38
2022-12-23T02:58:15.181Z,98961.88
2022-12-23T03:00:45.477Z,98963.53
2022-12-23T03:03:13.991Z,98966.38
2022-12-23T03:05:46.720Z,98965.38
2022-12-23T03:08:29.716Z,98967.00
2022-12-23T03:11:09.294Z,98972.31
2022-12-23T03:14:18.610Z,98968.84
2022-12-23T03:17:08.064Z,98973.34
2022-12-23T03:19:52.542Z,98987.59
2022-12-23T03:22:34.110Z,98990.25
2022-12-23T03:25:07.520Z,98989.44
2022-12-23T03:28:17.529Z,98988.44
2022-12-23T03:30:54.158Z,98980.47
2022-12-23T03:33:37.969Z,98988.44
2022-12-23T03:36:26.856Z,98981.28
2022-12-23T03:38:57.242Z,98987.44
2022-12-23T03:42:14.710Z,98977.16
2022-12-23T03:45:19.276Z,98982.47
2022-12-23T03:47:45.864Z,98976.38
2022-12-23T03:50:17.920Z,98970.84
2022-12-23T03:53:13.339Z,98978.81
2022-12-23T03:55:57.993Z,98982.28
2022-12-23T03:58:46.443Z,98989.81
2022-12-23T04:01:45.836Z,98990.22
2022-12-23T04:04:35.982Z,98998.00
2022-12-23T04:07:30.674Z,98991.66
2022-12-23T04:09:59.862Z,98996.56
2022-12-23T04:12:30.485Z,98991.25
2022-12-23T04:14:58.976Z,98989.06
2022-12-23T04:17:27.545Z,98988.88
2022-12-23T04:19:56.528Z,98994.78
2022-12-23T04:22:24.647Z,98982.16
2022-12-23T04:24:53.178Z,98994.41
2022-12-23T04:27:21.311Z,98994.06
2022-12-23T04:29:49.782Z,98993.25
2022-12-23T04:32:17.967Z,98996.56
2022-12-23T04:34:46.041Z,98994.50
2022-12-23T04:37:14.560Z,98990.66
2022-12-23T04:39:43.037Z,98987.19
2022-12-23T04:42:11.375Z,98996.16
2022-12-23T04:44:39.831Z,98990.84
2022-12-23T04:47:08.209Z,98991.28
2022-12-23T04:49:36.525Z,98987.25
2022-12-23T04:52:04.939Z,98992.56
2022-12-23T04:54:33.490Z,98984.78
2022-12-23T04:57:01.629Z,98990.09
2022-12-23T04:59:31.461Z,98990.91
2022-12-23T05:02:00.577Z,98981.94
2022-12-23T05:04:29.171Z,98992.34
2022-12-23T05:06:57.295Z,98998.66
2022-12-23T05:09:25.467Z,99006.63
2022-12-23T05:11:53.961Z,99003.34
2022-12-23T05:14:22.113Z,99000.69
2022-12-23T05:16:50.666Z,99001.53
2022-12-23T05:19:19.277Z,98996.84
2022-12-23T05:21:47.757Z,99000.53
2022-12-23T05:24:15.835Z,99005.22
2022-12-23T05:26:47.826Z,99004.41
2022-12-23T05:29:17.249Z,99011.56
2022-12-23T05:31:45.830Z,99005.22
2022-12-23T05:34:13.962Z,99001.38
2022-12-23T05:36:42.089Z,99014.06
2022-12-23T05:39:10.913Z,99008.94
2022-12-23T05:41:39.533Z,99019.38
2022-12-23T05:44:08.008Z,99015.91
2022-12-23T05:46:36.912Z,99018.81
2022-12-23T05:49:05.504Z,99037.63
2022-12-23T05:51:34.101Z,99034.03
2022-12-23T05:54:02.575Z,99037.28
2022-12-23T05:56:30.633Z,99026.72
2022-12-23T05:58:59.225Z,99028.75
2022-12-23T06:01:27.726Z,99029.94
2022-12-23T06:03:56.321Z,99028.31
2022-12-23T06:06:24.731Z,99025.41
2022-12-23T06:08:59.142Z,99027.09
2022-12-23T06:11:28.491Z,99026.09
2022-12-23T06:13:57.138Z,99035.25
2022-12-23T06:16:25.805Z,99026.91
2022-12-23T06:18:58.053Z,99029.19
2022-12-23T06:21:26.700Z,99027.94
2022-12-23T06:23:55.278Z,99035.91
2022-12-23T06:26:23.781Z,99042.03
2022-12-23T06:28:52.440Z,99043.28
2022-12-23T06:31:21.095Z,99039.38
2022-12-23T06:33:49.664Z,99043.88
2022-12-23T06:36:17.774Z,99051.88
2022-12-23T06:38:46.178Z,99050.44
2022-12-23T06:41:14.669Z,99059.41
2022-12-23T06:43:43.105Z,99054.94
2022-12-23T06:46:11.617Z,99058.59
2022-12-23T06:48:40.064Z,99058.22
2022-12-23T06:51:08.505Z,99061.53
2022-12-23T06:53:36.986Z,99071.53
2022-12-23T06:56:06.172Z,99069.50
2022-12-23T06:58:34.663Z,99070.75
2022-12-23T07:01:02.935Z,99078.13
2022-12-23T07:03:31.157Z,99076.06
2022-12-23T07:05:59.698Z,99078.59
2022-12-23T07:08:27.869Z,99082.47
2022-12-23T07:11:00.815Z,99087.00
2022-12-23T07:13:29.549Z,99093.72
2022-12-23T07:15:58.099Z,99092.53
2022-12-23T07:18:27.093Z,99080.47
2022-12-23T07:20:55.554Z,99087.00
2022-12-23T07:23:24.176Z,99090.66
2022-12-23T07:25:52.591Z,99084.53
2022-12-23T07:28:20.792Z,99086.16
2022-12-23T07:30:49.311Z,99091.50
2022-12-23T07:33:17.819Z,99084.78
2022-12-23T07:35:45.885Z,99096.03
2022-12-23T07:38:14.351Z,99094.81
2022-12-23T07:40:42.406Z,99101.13
2022-12-23T07:43:11.496Z,99097.28
2022-12-23T07:45:40.082Z,99106.44
2022-12-23T07:48:09.283Z,99112.97
2022-12-23T07:50:37.692Z,99110.53
2022-12-23T07:53:06.200Z,99105.22
2022-12-23T07:55:34.766Z,99113.41
2022-12-23T07:58:03.299Z,99114.06
2022-12-23T08:00:31.760Z,99107.09
2022-12-23T08:03:00.359Z,99113.66
2022-12-23T08:05:28.946Z,99126.97
2022-12-23T08:07:57.450Z,99120.44
2022-12-23T08:10:26.028Z,99123.91
2022-12-23T08:12:54.597Z,99127.41
2022-12-23T08:15:23.076Z,99130.06
2022-12-23T08:17:51.594Z,99121.44
2022-12-23T08:20:20.088Z,99126.75
2022-12-23T08:22:48.170Z,99125.75
2022-12-23T08:25:16.363Z,99137.25
2022-12-23T08:27:44.423Z,99132.16
2022-12-23T08:30:13.760Z,99134.63
2022-12-23T08:32:41.845Z,99139.97
2022-12-23T08:35:10.573Z,99141.22
2022-12-23T08:37:38.996Z,99150.84
2022-12-23T08:40:08.206Z,99151.06
2022-12-23T08:42:36.660Z,99140.19
2022-12-23T08:45:05.968Z,99139.00
2022-12-23T08:47:34.407Z,99144.97
2022-12-23T08:50:03.284Z,99158.69
2022-12-23T08:52:31.458Z,99158.84
2022-12-23T08:54:59.972Z,99161.56
2022-12-23T08:57:28.420Z,99161.75
2022-12-23T08:59:56.869Z,99160.13
2022-12-23T09:02:25.463Z,99169.38
2022-12-23T09:04:54.052Z,99172.44
2022-12-23T09:07:23.064Z,99181.47
2022-12-23T09:09:51.319Z,99185.19
2022-12-23T09:12:19.425Z,99185.56
2022-12-23T09:14:48.501Z,99183.78
2022-12-23T09:17:17.807Z,99176.63
2022-12-23T09:19:52.466Z,99182.75
2022-12-23T09:22:21.647Z,99177.44
2022-12-23T09:24:50.062Z,99181.94
2022-12-23T09:27:18.677Z,99190.56
2022-12-23T09:29:46.765Z,99193.84
2022-12-23T09:32:15.264Z,99188.53
2022-12-23T09:34:43.685Z,99196.56
2022-12-23T09:37:12.928Z,99205.59
2022-12-23T09:39:41.453Z,99211.53
2022-12-23T09:42:51.388Z,99212.78
2022-12-23T09:45:50.463Z,99217.28
2022-12-23T09:48:26.675Z,99221.75
2022-12-23T09:50:55.696Z,99226.06
2022-12-23T09:53:50.696Z,99225.63
2022-12-23T09:56:32.631Z,99226.09
2022-12-23T09:59:36.626Z,99232.84
2022-12-23T10:02:23.559Z,99230.41
2022-12-23T10:05:38.685Z,99227.94
2022-12-23T10:08:25.990Z,99227.09
2022-12-23T10:11:16.467Z,99211.38
2022-12-23T10:13:57.792Z,99213.22
2022-12-23T10:16:31.594Z,99212.81
2022-12-23T10:19:05.858Z,99210.75
2022-12-23T10:22:10.152Z,99212.44
2022-12-23T10:24:44.008Z,99206.50
2022-12-23T10:27:31.778Z,99205.28
2022-12-23T10:30:56.834Z,99216.75
2022-12-23T10:33:44.820Z,99211.19
2022-12-23T10:36:23.381Z,99207.25
2022-12-23T10:38:56.300Z,99214.25
2022-12-23T10:41:33.876Z,99200.75
2022-12-23T10:44:25.438Z,99203.19
2022-12-23T10:46:56.711Z,99207.75
2022-12-23T10:49:55.395Z,99208.00
2022-12-23T10:52:27.293Z,99217.84
2022-12-23T10:54:55.403Z,99236.31
2022-12-23T10:57:24.870Z,99227.13
2022-12-23T10:59:53.582Z,99233.69
2022-12-23T11:02:38.791Z,99228.16
2022-12-23T11:05:16.602Z,99226.75
2022-12-23T11:07:46.970Z,99223.66
2022-12-23T11:10:23.254Z,99229.41
2022-12-23T11:12:55.033Z,99232.69
2022-12-23T11:15:29.285Z,99231.03
2022-12-23T11:18:21.884Z,99235.75
2022-12-23T11:21:07.735Z,99233.88
2022-12-23T11:23:37.427Z,99223.66
2022-12-23T11:26:10.332Z,99229.59
2022-12-23T11:28:52.581Z,99224.25
2022-12-23T11:31:33.581Z,99231.22
2022-12-23T11:34:07.416Z,99221.59
2022-12-23T11:36:36.227Z,99210.91
2022-12-23T11:39:11.052Z,99207.44
2022-12-23T11:41:47.648Z,99214.00
2022-12-23T11:44:30.874Z,99203.75
2022-12-23T11:46:59.588Z,99210.53
2022-12-23T11:52:11.972Z,99197.41
2022-12-23T11:54:40.738Z,99193.94
2022-12-23T11:57:18.774Z,99196.59
2022-12-23T11:59:49.993Z,99191.88
2022-12-23T12:02:37.670Z,99192.06
2022-12-23T12:05:22.944Z,99196.38
2022-12-23T12:07:52.481Z,99191.69
2022-12-23T12:10:35.137Z,99199.47
2022-12-23T12:13:07.808Z,99189.63
2022-12-23T12:15:57.469Z,99190.44
2022-12-23T12:18:25.810Z,99196.19
2022-12-23T12:21:02.889Z,99201.09
2022-12-23T12:24:17.932Z,99200.25
2022-12-23T12:26:52.957Z,99193.50
2022-12-23T12:29:46.399Z,99195.53
2022-12-23T12:32:27.263Z,99195.94
2022-12-23T12:35:11.404Z,99191.25
2022-12-23T12:38:02.107Z,99195.53
2022-12-23T12:40:44.491Z,99185.09
2022-12-23T12:43:37.612Z,99189.41
2022-12-23T12:46:39.398Z,99187.13
2022-12-23T12:49:26.444Z,99184.06
2022-12-23T12:52:21.063Z,99181.38
2022-12-23T12:55:00.389Z,99181.16
2022-12-23T12:57:28.913Z,99178.28
2022-12-23T13:00:05.594Z,99170.28
2022-12-23T13:03:04.707Z,99167.22
2022-12-23T13:05:48.541Z,99164.97
2022-12-23T13:08:54.026Z,99161.06
2022-12-23T13:11:47.413Z,99157.97
2022-12-23T13:15:04.558Z,99166.56
2022-12-23T13:18:12.399Z,99168.84
2022-12-23T13:20:48.969Z,99167.19
2022-12-23T13:23:44.783Z,99166.56
2022-12-23T13:26:28.903Z,99168.00
2022-12-23T13:29:34.359Z,99172.06
2022-12-23T13:32:21.436Z,99162.00
2022-12-23T13:35:21.892Z,99158.31
2022-12-23T13:38:51.392Z,99153.41
2022-12-23T13:41:46.563Z,99142.50
2022-12-23T13:44:15.228Z,99138.81
2022-12-23T13:47:02.145Z,99136.78
2022-12-23T13:49:49.783Z,99135.53
2022-12-23T13:52:27.781Z,99139.81
2022-12-23T13:55:26.950Z,99135.22
2022-12-23T13:58:07.291Z,99137.28
2022-12-23T14:00:36.210Z,99136.41
2022-12-23T14:03:07.382Z,99139.28
2022-12-23T14:05:46.269Z,99127.97
2022-12-23T14:08:20.473Z,99130.03
2022-12-23T14:11:12.016Z,99119.78
2022-12-23T14:13:52.907Z,99121.81
2022-12-23T14:16:50.105Z,99119.16
2022-12-23T14:19:42.451Z,99122.00
2022-12-23T14:22:36.359Z,99122.84
2022-12-23T14:25:42.288Z,99116.69
2022-12-23T14:28:37.019Z,99125.50
2022-12-23T14:31:06.460Z,99122.84
2022-12-23T14:33:38.273Z,99116.88
2022-12-23T14:36:28.385Z,99112.78
2022-12-23T14:39:16.637Z,99109.50
2022-12-23T14:41:58.828Z,99112.34
2022-12-23T14:44:37.783Z,99116.03
2022-12-23T14:47:32.625Z,99108.25
2022-12-23T14:50:58.473Z,99105.41
2022-12-23T14:53:33.365Z,99098.88
2022-12-23T14:56:16.849Z,99096.38
2022-12-23T14:59:00.991Z,99091.47
2022-12-23T15:01:51.847Z,99095.97
2022-12-23T15:04:31.825Z,99093.69
2022-12-23T15:07:14.822Z,99100.47
2022-12-23T15:10:07.533Z,99101.66
2022-12-23T15:12:42.039Z,99102.50
2022-12-23T15:15:28.785Z,99100.84
2022-12-23T15:18:06.340Z,99096.34
2022-12-23T15:20:35.277Z,99088.97
2022-12-23T15:23:10.951Z,99090.00
2022-12-23T15:25:46.107Z,99099.81
2022-12-23T15:28:23.458Z,99093.47
2022-12-23T15:30:55.440Z,99100.22
2022-12-23T15:34:01.418Z,99100.22
2022-12-23T15:36:32.319Z,99112.09
2022-12-23T15:39:02.035Z,99109.81
2022-12-23T15:41:30.868Z,99104.06
2022-12-23T15:44:01.873Z,99102.63
2022-12-23T15:46:32.901Z,99106.75
2022-12-23T15:49:02.012Z,99106.75
2022-12-23T15:52:05.690Z,99109.41
2022-12-23T15:54:37.275Z,99113.06
2022-12-23T15:57:05.986Z,99105.09
2022-12-23T15:59:38.990Z,99099.97
2022-12-23T16:02:59.772Z,99104.47
2022-12-23T16:05:34.135Z,99102.44
2022-12-23T16:08:16.550Z,99086.47
2022-12-23T16:11:19.926Z,99085.47
2022-12-23T16:14:35.779Z,99091.59
2022-12-23T16:17:09.959Z,99083.63
2022-12-23T16:19:55.076Z,99090.97
2022-12-23T16:22:36.194Z,99094.66
2022-12-23T16:25:18.035Z,99082.16
2022-12-23T16:28:00.822Z,99073.50
2022-12-23T16:30:43.592Z,99078.19
2022-12-23T16:33:32.916Z,99069.78
2022-12-23T16:36:19.509Z,99073.03
2022-12-23T16:38:49.549Z,99057.47
2022-12-23T16:41:17.759Z,99052.53
2022-12-23T16:43:51.997Z,99045.78
2022-12-23T16:46:24.067Z,99031.63
2022-12-23T16:49:04.675Z,99019.56
2022-12-23T16:51:34.283Z,99020.34
2022-12-23T16:54:03.174Z,99031.81
2022-12-23T16:56:40.714Z,99025.03
2022-12-23T16:59:09.725Z,99024.00
2022-12-23T17:02:03.143Z,99015.59
2022-12-23T17:04:31.657Z,99018.66
2022-12-23T17:07:00.066Z,99021.13
2022-12-23T17:09:31.254Z,99017.84
2022-12-23T17:11:59.744Z,99009.84
2022-12-23T17:14:28.187Z,98989.38
2022-12-23T17:16:57.693Z,98986.16
2022-12-23T17:19:28.677Z,98987.34
2022-12-23T17:22:02.927Z,98992.06
2022-12-23T17:24:31.290Z,98991.88
2022-12-23T17:27:00.054Z,98977.94
2022-12-23T17:29:28.765Z,98973.66
2022-12-23T17:31:56.849Z,98975.50
2022-12-23T17:34:26.072Z,98983.47
2022-12-23T17:36:54.770Z,98991.44
2022-12-23T17:42:07.771Z,98980.16
2022-12-23T17:44:36.194Z,98976.50
2022-12-23T17:47:15.776Z,98971.00
2022-12-23T17:49:44.522Z,98983.25
2022-12-23T17:52:24.721Z,98983.25
2022-12-23T17:54:53.705Z,98984.06
2022-12-23T17:57:22.999Z,98984.91
2022-12-23T17:59:53.220Z,98984.91
2022-12-23T18:02:30.715Z,98975.28
2022-12-23T18:04:59.280Z,98975.50
2022-12-23T18:07:30.610Z,98980.81
2022-12-23T18:09:59.065Z,98974.66
2022-12-23T18:12:40.619Z,98972.19
2022-12-23T18:15:42.999Z,98959.94
2022-12-23T18:18:31.176Z,98950.34
2022-12-23T18:21:04.145Z,98938.88
2022-12-23T18:23:35.050Z,98946.03
2022-12-23T18:26:03.693Z,98923.94
2022-12-23T18:28:31.927Z,98909.22
2022-12-23T18:31:00.381Z,98902.91
2022-12-23T18:33:30.371Z,98900.66
2022-12-23T18:35:58.657Z,98891.66
2022-12-23T18:38:27.134Z,98891.66
2022-12-23T18:40:56.740Z,98885.31
2022-12-23T18:43:28.080Z,98878.97
2022-12-23T18:45:56.584Z,98873.66
2022-12-23T18:48:25.178Z,98862.63
2022-12-23T18:50:53.640Z,98849.75
2022-12-23T18:53:25.354Z,98840.94
2022-12-23T18:55:55.308Z,98828.50
2022-12-23T18:58:24.440Z,98818.69
2022-12-23T19:00:54.272Z,98801.53
2022-12-23T19:03:27.190Z,98804.81
2022-12-23T19:05:56.737Z,98800.13
2022-12-23T19:08:28.013Z,98795.84
2022-12-23T19:10:57.194Z,98795.84
2022-12-23T19:13:26.136Z,98791.34
2022-12-23T19:15:54.917Z,98791.78
2022-12-23T19:18:23.492Z,98789.13
2022-12-23T19:20:51.907Z,98791.56
2022-12-23T19:23:20.407Z,98795.84
2022-12-23T19:25:55.010Z,98794.84
2022-12-23T19:28:24.011Z,98808.31
2022-12-23T19:30:52.451Z,98810.38
2022-12-23T19:33:20.578Z,98813.63
2022-12-23T19:35:49.142Z,98807.50
2022-12-23T19:38:17.706Z,98831.22
2022-12-23T19:40:46.074Z,98833.66
2022-12-23T19:43:14.551Z,98822.22
2022-12-23T19:45:42.912Z,98814.28
2022-12-23T19:48:11.389Z,98807.31
2022-12-23T19:50:39.810Z,98830.75
2022-12-23T19:53:08.266Z,98842.16
2022-12-23T19:55:36.744Z,98838.50
2022-12-23T19:58:05.212Z,98810.72
2022-12-23T20:00:33.612Z,98794.41
2022-12-23T20:03:02.083Z,98800.53
2022-12-23T20:05:30.102Z,98785.81
2022-12-23T20:07:58.648Z,98814.56
2022-12-23T20:10:27.336Z,98809.88
2022-12-23T20:12:55.765Z,98832.38
2022-12-23T20:15:24.254Z,98812.34
2022-12-23T20:17:52.695Z,98799.53
2022-12-23T20:20:21.173Z,98799.75
2022-12-23T20:22:49.636Z,98810.16
2022-12-23T20:25:18.120Z,98809.13
2022-12-23T20:27:46.573Z,98830.72
2022-12-23T20:30:14.649Z,98841.59
2022-12-23T20:32:43.063Z,98838.94
2022-12-23T20:35:11.682Z,98823.28
2022-12-23T20:37:40.172Z,98810.81
2022-12-23T20:40:11.099Z,98804.44
2022-12-23T20:42:39.510Z,98812.66
2022-12-23T20:45:08.552Z,98817.53
2022-12-23T20:47:36.563Z,98824.69
2022-12-23T20:50:05.341Z,98823.25
2022-12-23T20:52:33.820Z,98814.28
2022-12-23T20:55:02.538Z,98820.63
2022-12-23T20:57:31.688Z,98819.97
2022-12-23T21:00:00.419Z,98809.16
2022-12-23T21:02:28.905Z,98805.28
2022-12-23T21:04:57.317Z,98810.41
2022-12-23T21:07:26.373Z,98808.59
2022-12-23T21:09:54.750Z,98820.81
2022-12-23T21:12:23.177Z,98822.84
2022-12-23T21:14:51.750Z,98814.28
2022-12-23T21:17:23.594Z,98807.72
2022-12-23T21:19:51.591Z,98814.66
2022-12-23T21:22:20.019Z,98817.97
2022-12-23T21:24:48.540Z,98822.25
2022-12-23T21:27:16.965Z,98807.13
2022-12-23T21:29:45.488Z,98814.06
2022-12-23T21:32:16.812Z,98804.47
2022-12-23T21:34:44.977Z,98809.59
2022-12-23T21:37:13.490Z,98802.84
2022-12-23T21:39:42.083Z,98800.19
2022-12-23T21:42:10.506Z,98799.16
2022-12-23T21:44:39.011Z,98799.38
2022-12-23T21:47:07.587Z,98803.84
2022-12-23T21:49:35.747Z,98814.28
2022-12-23T21:52:03.763Z,98812.66
2022-12-23T21:54:32.640Z,98808.16
2022-12-23T21:57:01.172Z,98810.00
2022-12-23T21:59:34.722Z,98807.50
2022-12-23T22:02:03.868Z,98816.13
2022-12-23T22:04:32.021Z,98829.41
2022-12-23T22:07:00.079Z,98833.50
2022-12-23T22:09:28.760Z,98833.91
2022-12-23T22:11:58.705Z,98844.34
2022-12-23T22:14:26.922Z,98830.28
2022-12-23T22:16:55.088Z,98827.41
2022-12-23T22:19:24.007Z,98829.88
2022-12-23T22:21:52.403Z,98833.31
2022-12-23T22:24:21.029Z,98828.44
2022-12-23T22:26:49.528Z,98835.22
2022-12-23T22:29:17.943Z,98849.28
2022-12-23T22:31:53.213Z,98861.97
2022-12-23T22:34:23.540Z,98866.47
2022-12-23T22:36:52.590Z,98876.25
2022-12-23T22:39:22.850Z,98873.59
2022-12-23T22:41:52.534Z,98879.56
2022-12-23T22:44:21.692Z,98883.66
2022-12-23T22:46:50.332Z,98878.94
2022-12-23T22:49:19.384Z,98892.47
2022-12-23T22:51:48.132Z,98893.50
2022-12-23T22:54:16.700Z,98898.03
2022-12-23T22:56:46.724Z,98896.38
2022-12-23T22:59:23.338Z,98896.03
2022-12-23T23:01:53.820Z,98900.94
2022-12-23T23:04:22.137Z,98908.50
2022-12-23T23:06:50.682Z,98910.38
2022-12-23T23:09:21.302Z,98908.31
2022-12-23T23:11:50.285Z,98908.94
2022-12-23T23:14:18.939Z,98912.84
2022-12-23T23:16:48.238Z,98905.25
2022-12-23T23:19:20.374Z,98905.69
2022-12-23T23:21:49.176Z,98910.00
2022-12-23T23:24:17.979Z,98910.81
2022-12-23T23:26:46.061Z,98919.81
2022-12-23T23:29:14.492Z,98920.84
2022-12-23T23:31:44.189Z,98932.72
2022-12-23T23:34:13.718Z,98927.81
2022-12-23T23:36:42.659Z,98919.63
2022-12-23T23:39:13.391Z,98917.16
2022-12-23T23:41:42.193Z,98924.75
2022-12-23T23:44:11.582Z,98927.41
2022-12-23T23:46:40.872Z,98928.41
2022-12-23T23:49:09.600Z,98924.94
2022-12-23T23:51:38.136Z,98922.91
2022-12-23T23:54:07.125Z,98929.63
2022-12-23T23:56:39.210Z,98932.94
2022-12-23T23:59:09.838Z,98936.41
